createdAt,value
2018-07-12T00:01:48.523Z,100843.70
2018-07-12T00:06:50.826Z,100843.47
2018-07-12T00:11:54.998Z,100843.16
2018-07-12T00:16:57.505Z,100838.86
2018-07-12T00:22:00.017Z,100830.91
2018-07-12T00:27:02.342Z,100831.95
2018-07-12T00:32:04.671Z,100839.07
2018-07-12T00:37:07.045Z,100835.72
2018-07-12T00:42:09.351Z,100826.30
2018-07-12T00:47:11.877Z,100828.87
2018-07-12T00:52:14.180Z,100818.48
2018-07-12T00:57:17.338Z,100818.41
2018-07-12T01:02:19.672Z,100825.02
2018-07-12T01:07:22.001Z,100827.13
2018-07-12T01:12:24.327Z,100823.34
2018-07-12T01:17:26.666Z,100838.59
2018-07-12T01:22:29.153Z,100837.24
2018-07-12T01:27:31.565Z,100831.62
2018-07-12T01:32:33.857Z,100822.80
2018-07-12T01:37:36.205Z,100823.03
2018-07-12T01:42:38.525Z,100827.80
2018-07-12T01:47:40.855Z,100829.78
2018-07-12T01:52:43.176Z,100832.30
2018-07-12T01:57:45.525Z,100826.59
2018-07-12T02:02:47.913Z,100825.98
2018-07-12T02:07:50.423Z,100820.80
2018-07-12T02:12:52.792Z,100819.25
2018-07-12T02:17:56.569Z,100816.96
2018-07-12T02:22:58.871Z,100816.39
2018-07-12T02:28:01.217Z,100819.70
2018-07-12T02:33:03.677Z,100822.59
2018-07-12T02:38:05.978Z,100814.22
2018-07-12T02:43:09.026Z,100813.52
2018-07-12T02:48:11.400Z,100818.44
2018-07-12T02:53:13.996Z,100813.93
2018-07-12T02:58:16.319Z,100804.98
2018-07-12T03:03:18.669Z,100800.73
2018-07-12T03:08:21.053Z,100798.63
2018-07-12T03:13:23.395Z,100810.12
2018-07-12T03:18:25.727Z,100813.25
2018-07-12T03:23:28.286Z,100820.55
2018-07-12T03:28:30.591Z,100830.27
2018-07-12T03:33:32.929Z,100834.84
2018-07-12T03:38:35.237Z,100833.42
2018-07-12T03:43:38.494Z,100836.55
2018-07-12T03:48:40.799Z,100836.34
2018-07-12T03:53:43.128Z,100843.86
2018-07-12T03:58:45.421Z,100841.45
2018-07-12T04:03:47.850Z,100841.05
2018-07-12T04:08:50.168Z,100846.16
2018-07-12T04:13:52.516Z,100851.97
2018-07-12T04:18:54.818Z,100854.54
2018-07-12T04:23:57.177Z,100854.44
2018-07-12T04:28:59.502Z,100857.34
2018-07-12T04:34:02.025Z,100858.86
2018-07-12T04:39:04.759Z,100861.31
2018-07-12T04:44:07.282Z,100859.42
2018-07-12T04:49:09.581Z,100866.80
2018-07-12T04:54:12.487Z,100865.88
2018-07-12T04:59:15.095Z,100862.79
2018-07-12T05:04:17.595Z,100859.12
2018-07-12T05:09:19.955Z,100861.73
2018-07-12T05:14:22.332Z,100873.97
2018-07-12T05:19:24.664Z,100874.31
2018-07-12T05:24:27.190Z,100879.69
2018-07-12T05:29:29.509Z,100885.67
2018-07-12T05:34:31.874Z,100898.13
2018-07-12T05:39:35.513Z,100899.06
2018-07-12T05:44:39.057Z,100894.14
2018-07-12T05:49:42.595Z,100900.15
2018-07-12T05:54:46.257Z,100895.13
2018-07-12T05:59:49.803Z,100895.30
2018-07-12T06:04:53.509Z,100901.53
2018-07-12T06:09:57.847Z,100903.52
2018-07-12T06:15:01.414Z,100908.38
2018-07-12T06:20:08.036Z,100906.84
2018-07-12T06:25:11.818Z,100917.03
2018-07-12T06:30:18.334Z,100927.81
2018-07-12T06:35:21.965Z,100922.95
2018-07-12T06:40:25.745Z,100931.03
2018-07-12T06:45:29.417Z,100928.48
2018-07-12T06:50:33.119Z,100932.59
2018-07-12T06:55:37.684Z,100932.56
2018-07-12T07:00:41.222Z,100931.17
2018-07-12T07:05:44.877Z,100936.62
2018-07-12T07:10:48.389Z,100933.86
2018-07-12T07:15:52.874Z,100938.27
2018-07-12T07:20:56.409Z,100943.37
2018-07-12T07:26:00.561Z,100948.00
2018-07-12T07:31:04.586Z,100952.92
2018-07-12T07:36:09.184Z,100951.94
2018-07-12T07:41:12.751Z,100958.70
2018-07-12T07:46:17.273Z,100961.51
2018-07-12T07:51:20.776Z,100966.33
2018-07-12T07:56:24.347Z,100966.47
2018-07-12T08:01:27.866Z,100971.16
2018-07-12T08:06:32.302Z,100975.34
2018-07-12T08:11:35.810Z,100980.78
2018-07-12T08:16:39.344Z,100960.02
2018-07-12T08:21:42.877Z,100959.52
2018-07-12T08:26:46.485Z,100956.61
2018-07-12T08:31:50.265Z,100952.03
2018-07-12T08:36:54.031Z,100953.97
2018-07-12T08:41:57.599Z,100950.59
2018-07-12T08:47:01.244Z,100957.56
2018-07-12T08:52:05.661Z,100952.22
2018-07-12T08:57:18.479Z,100952.42
2018-07-12T09:02:22.761Z,100943.22
2018-07-12T09:07:26.354Z,100942.27
2018-07-12T09:12:30.213Z,100945.16
2018-07-12T09:17:33.759Z,100955.45
2018-07-12T09:22:37.268Z,100957.75
2018-07-12T09:27:41.051Z,100951.94
2018-07-12T09:32:44.628Z,100956.99
2018-07-12T09:37:48.306Z,100958.98
2018-07-12T09:42:53.172Z,100961.16
2018-07-12T09:47:57.157Z,100964.73
2018-07-12T09:53:00.719Z,100957.28
2018-07-12T09:58:15.650Z,100960.30
2018-07-12T10:03:21.562Z,100955.03
2018-07-12T10:08:30.430Z,100967.73
2018-07-12T10:13:39.256Z,100958.33
2018-07-12T10:18:43.181Z,100961.94
2018-07-12T10:23:46.796Z,100964.13
2018-07-12T10:28:51.954Z,100958.50
2018-07-12T10:33:56.896Z,100951.30
2018-07-12T10:39:00.992Z,100951.03
2018-07-12T10:44:04.710Z,100943.52
2018-07-12T10:49:08.405Z,100949.98
2018-07-12T10:54:12.057Z,100946.92
2018-07-12T10:59:15.549Z,100947.52
2018-07-12T11:04:19.307Z,100942.78
2018-07-12T11:09:22.917Z,100940.92
2018-07-12T11:14:26.481Z,100934.73
2018-07-12T11:19:30.154Z,100936.81
2018-07-12T11:24:34.276Z,100929.34
2018-07-12T11:29:51.369Z,100932.70
2018-07-12T11:34:55.012Z,100929.77
2018-07-12T11:39:58.748Z,100924.16
2018-07-12T11:45:02.418Z,100924.22
2018-07-12T11:50:06.290Z,100908.95
2018-07-12T11:55:09.892Z,100912.18
2018-07-12T12:00:16.280Z,100912.48
2018-07-12T12:05:21.055Z,100908.58
2018-07-12T12:10:25.072Z,100923.05
2018-07-12T12:15:28.721Z,100921.45
2018-07-12T12:20:32.466Z,100922.09
2018-07-12T12:25:36.269Z,100923.48
2018-07-12T12:30:39.956Z,100923.03
2018-07-12T12:35:43.637Z,100917.33
2018-07-12T12:40:47.219Z,100910.44
2018-07-12T12:45:51.748Z,100906.02
2018-07-12T12:50:55.331Z,100901.39
2018-07-12T12:55:58.917Z,100908.53
2018-07-12T13:01:02.918Z,100910.22
2018-07-12T13:06:13.366Z,100919.97
2018-07-12T13:11:17.810Z,100930.06
2018-07-12T13:16:21.369Z,100939.38
2018-07-12T13:21:24.937Z,100944.52
2018-07-12T13:26:28.670Z,100938.98
2018-07-12T13:31:32.515Z,100930.28
2018-07-12T13:36:36.045Z,100930.29
2018-07-12T13:41:39.634Z,100924.14
2018-07-12T13:46:43.519Z,100926.30
2018-07-12T13:51:48.381Z,100918.83
2018-07-12T13:56:52.448Z,100920.27
2018-07-12T14:01:56.007Z,100917.44
2018-07-12T14:06:59.708Z,100929.35
2018-07-12T14:12:03.521Z,100922.23
2018-07-12T14:17:07.038Z,100920.23
2018-07-12T14:22:10.659Z,100921.95
2018-07-12T14:27:14.428Z,100930.06
2018-07-12T14:32:18.274Z,100928.70
2018-07-12T14:37:21.940Z,100925.04
2018-07-12T14:42:25.509Z,100919.66
2018-07-12T14:47:29.062Z,100919.98
2018-07-12T14:52:32.727Z,100931.33
2018-07-12T14:57:36.642Z,100934.75
2018-07-12T15:02:40.161Z,100952.08
2018-07-12T15:07:44.009Z,100957.73
2018-07-12T15:12:47.523Z,100963.13
2018-07-12T15:17:51.288Z,100967.54
2018-07-12T15:22:54.807Z,100972.45
2018-07-12T15:27:59.062Z,100966.02
2018-07-12T15:33:02.715Z,100969.14
2018-07-12T15:38:06.529Z,100977.61
2018-07-12T15:43:10.039Z,100973.67
2018-07-12T15:48:13.621Z,100962.05
2018-07-12T15:53:17.186Z,100973.47
2018-07-12T15:58:21.589Z,100973.30
2018-07-12T16:03:25.095Z,100957.43
2018-07-12T16:08:30.457Z,100938.87
2018-07-12T16:13:35.103Z,100933.59
2018-07-12T16:18:38.629Z,100926.24
2018-07-12T16:23:42.199Z,100931.23
2018-07-12T16:28:45.767Z,100923.77
2018-07-12T16:33:49.541Z,100929.06
2018-07-12T16:38:53.282Z,100926.92
2018-07-12T16:43:57.821Z,100916.06
2018-07-12T16:49:01.438Z,100921.30
2018-07-12T16:54:05.173Z,100913.62
2018-07-12T16:59:08.930Z,100926.02
2018-07-12T17:04:16.211Z,100932.97
2018-07-12T17:09:20.218Z,100935.08
2018-07-12T17:14:24.514Z,100944.67
2018-07-12T17:19:28.998Z,100950.61
2018-07-12T17:24:32.661Z,100948.53
2018-07-12T17:29:36.578Z,100960.47
2018-07-12T17:34:40.405Z,100952.81
2018-07-12T17:39:44.343Z,100973.45
2018-07-12T17:44:48.608Z,100962.70
2018-07-12T17:49:52.636Z,100968.77
2018-07-12T17:54:56.194Z,100973.93
2018-07-12T18:00:00.600Z,100979.17
2018-07-12T18:05:04.358Z,100982.91
2018-07-12T18:10:07.904Z,100980.55
2018-07-12T18:15:11.498Z,100969.34
2018-07-12T18:20:15.684Z,100975.27
2018-07-12T18:25:19.317Z,100971.38
2018-07-12T18:30:27.854Z,100966.41
2018-07-12T18:35:31.416Z,100972.15
2018-07-12T18:40:37.050Z,100965.93
2018-07-12T18:45:40.662Z,100971.54
2018-07-12T18:50:44.329Z,100975.81
2018-07-12T18:55:47.898Z,100977.48
2018-07-12T19:00:51.473Z,100982.70
2018-07-12T19:05:55.099Z,100983.20
2018-07-12T19:10:58.875Z,100988.03
2018-07-12T19:16:02.660Z,100985.97
2018-07-12T19:21:07.763Z,100985.82
2018-07-12T19:26:12.157Z,100996.28
2018-07-12T19:31:16.206Z,100998.92
2018-07-12T19:36:19.753Z,101005.68
2018-07-12T19:41:23.390Z,101010.23
2018-07-12T19:46:26.911Z,101020.73
2018-07-12T19:51:30.995Z,101018.38
2018-07-12T19:56:34.734Z,101021.36
2018-07-12T20:01:39.597Z,101025.94
2018-07-12T20:06:43.820Z,101030.77
2018-07-12T20:11:47.363Z,101036.55
2018-07-12T20:16:52.501Z,101046.75
2018-07-12T20:22:00.078Z,101048.73
2018-07-12T20:27:03.719Z,101059.44
2018-07-12T20:32:07.476Z,101059.78
2018-07-12T20:37:11.061Z,101062.73
2018-07-12T20:42:14.626Z,101059.39
2018-07-12T20:47:18.064Z,101072.89
2018-07-12T20:52:22.469Z,101078.13
2018-07-12T20:57:27.320Z,101072.14
2018-07-12T21:02:31.641Z,101073.69
2018-07-12T21:07:36.066Z,101080.46
2018-07-12T21:12:39.612Z,101081.45
2018-07-12T21:17:43.709Z,101082.43
2018-07-12T21:22:47.375Z,101082.19
2018-07-12T21:27:50.868Z,101080.92
2018-07-12T21:32:54.518Z,101086.01
2018-07-12T21:37:58.090Z,101083.05
2018-07-12T21:43:02.017Z,101085.68
2018-07-12T21:48:05.594Z,101092.31
2018-07-12T21:53:09.717Z,101099.03
2018-07-12T21:58:13.354Z,101101.80
2018-07-12T22:03:17.092Z,101105.02
2018-07-12T22:08:24.778Z,101108.96
2018-07-12T22:13:29.214Z,101110.48
2018-07-12T22:18:32.736Z,101112.88
2018-07-12T22:23:36.592Z,101113.55
2018-07-12T22:28:40.177Z,101108.62
2018-07-12T22:33:43.711Z,101105.15
2018-07-12T22:38:47.331Z,101104.23
2018-07-12T22:43:50.917Z,101104.84
2018-07-12T22:48:54.554Z,101109.38
2018-07-12T22:53:58.226Z,101115.69
2018-07-12T22:59:02.077Z,101107.13
2018-07-12T23:04:06.724Z,101108.67
2018-07-12T23:09:10.320Z,101111.98
2018-07-12T23:14:13.866Z,101103.06
2018-07-12T23:19:17.318Z,101114.73
2018-07-12T23:24:21.405Z,101110.34
2018-07-12T23:29:24.906Z,101110.34
2018-07-12T23:34:28.411Z,101103.88
2018-07-12T23:39:31.911Z,101103.92
2018-07-12T23:44:35.642Z,101107.48
2018-07-12T23:49:39.185Z,101102.97
2018-07-12T23:54:43.212Z,101110.06
2018-07-12T23:59:47.214Z,101114.25
